createdAt,value
2022-12-15T00:02:27.806Z,95324.25
2022-12-15T00:05:19.380Z,95304.47
2022-12-15T00:08:08.753Z,95230.19
2022-12-15T00:11:07.772Z,95292.03
2022-12-15T00:13:59.803Z,95285.28
2022-12-15T00:16:48.561Z,95265.56
2022-12-15T00:19:37.012Z,95274.94
2022-12-15T00:22:34.731Z,95287.84
2022-12-15T00:25:26.010Z,95256.69
2022-12-15T00:28:20.384Z,95337.84
2022-12-15T00:31:11.901Z,95326.84
2022-12-15T00:34:04.420Z,95324.50
2022-12-15T00:36:57.512Z,95293.97
2022-12-15T00:39:29.992Z,95278.34
2022-12-15T00:42:01.625Z,95318.03
2022-12-15T00:44:36.373Z,95348.78
2022-12-15T00:47:07.536Z,95332.84
2022-12-15T00:49:59.632Z,95328.06
2022-12-15T00:52:55.911Z,95319.25
2022-12-15T00:55:45.566Z,95346.53
2022-12-15T00:58:38.316Z,95352.28
2022-12-15T01:01:34.739Z,95374.56
2022-12-15T01:04:31.494Z,95345.97
2022-12-15T01:07:31.071Z,95319.72
2022-12-15T01:10:26.979Z,95352.28
2022-12-15T01:13:16.385Z,95349.72
2022-12-15T01:16:14.656Z,95384.81
2022-12-15T01:19:08.563Z,95453.31
2022-12-15T01:21:41.766Z,95380.63
2022-12-15T01:24:17.162Z,95341.63
2022-12-15T01:26:48.563Z,95366.69
2022-12-15T01:29:21.743Z,95344.56
2022-12-15T01:31:59.284Z,95389.31
2022-12-15T01:34:32.736Z,95364.97
2022-12-15T01:37:04.934Z,95298.88
2022-12-15T01:39:58.985Z,95383.34
2022-12-15T01:42:34.426Z,95426.56
2022-12-15T01:45:59.734Z,95382.38
2022-12-15T01:48:48.657Z,95436.09
2022-12-15T01:51:28.841Z,95425.63
2022-12-15T01:54:06.643Z,95392.84
2022-12-15T01:56:39.798Z,95418.16
2022-12-15T01:59:15.291Z,95408.53
2022-12-15T02:01:45.332Z,95425.41
2022-12-15T02:04:29.467Z,95460.13
2022-12-15T02:07:04.958Z,95264.09
2022-12-15T02:09:37.154Z,95303.69
2022-12-15T02:12:21.726Z,95443.47
2022-12-15T02:15:19.285Z,95406.19
2022-12-15T02:18:02.333Z,95416.03
2022-12-15T02:20:56.874Z,95450.25
2022-12-15T02:24:15.275Z,95440.41
2022-12-15T02:27:30.243Z,95408.75
2022-12-15T02:30:37.133Z,95429.16
2022-12-15T02:33:19.416Z,95403.03
2022-12-15T02:36:00.560Z,95426.81
2022-12-15T02:38:35.017Z,95446.75
2022-12-15T02:41:29.860Z,95439.50
2022-12-15T02:44:00.243Z,95456.50
2022-12-15T02:46:51.437Z,95336.25
2022-12-15T02:49:33.801Z,95424.22
2022-12-15T02:52:28.880Z,95419.09
2022-12-15T02:55:18.352Z,95444.28
2022-12-15T02:57:57.664Z,95396.34
2022-12-15T03:00:30.576Z,95414.38
2022-12-15T03:03:11.722Z,95432.94
2022-12-15T03:05:47.193Z,95391.06
2022-12-15T03:08:17.764Z,95420.25
2022-12-15T03:10:54.599Z,95465.50
2022-12-15T03:13:34.338Z,95468.06
2022-12-15T03:16:05.211Z,95435.00
2022-12-15T03:18:38.887Z,95435.25
2022-12-15T03:21:09.746Z,95458.94
2022-12-15T03:23:42.405Z,95394.00
2022-12-15T03:26:13.987Z,95477.44
2022-12-15T03:28:44.932Z,95450.72
2022-12-15T03:31:16.500Z,95455.06
2022-12-15T03:33:50.015Z,95382.53
2022-12-15T03:36:24.273Z,95436.66
2022-12-15T03:38:56.214Z,95438.78
2022-12-15T03:41:27.606Z,95448.63
2022-12-15T03:43:58.857Z,95451.91
2022-12-15T03:46:33.568Z,95496.22
2022-12-15T03:49:07.263Z,95442.41
2022-12-15T03:51:45.374Z,95480.03
2022-12-15T03:54:18.583Z,95476.06
2022-12-15T03:56:56.486Z,95466.19
2022-12-15T03:59:29.672Z,95421.88
2022-12-15T04:02:01.379Z,95439.25
2022-12-15T04:04:37.602Z,95481.47
2022-12-15T04:07:12.740Z,95463.38
2022-12-15T04:09:47.777Z,95483.09
2022-12-15T04:12:25.067Z,95458.69
2022-12-15T04:15:00.091Z,95462.22
2022-12-15T04:17:37.488Z,95508.03
2022-12-15T04:20:12.303Z,95483.31
2022-12-15T04:22:45.925Z,95487.91
2022-12-15T04:25:36.183Z,95509.59
2022-12-15T04:28:28.051Z,95501.47
2022-12-15T04:31:22.628Z,95488.69
2022-12-15T04:34:16.037Z,95519.78
2022-12-15T04:37:12.238Z,95490.84
2022-12-15T04:40:10.948Z,95479.59
2022-12-15T04:43:03.477Z,95492.00
2022-12-15T04:45:55.183Z,95526.44
2022-12-15T04:48:45.998Z,95507.72
2022-12-15T04:51:38.756Z,95473.94
2022-12-15T04:54:31.335Z,95514.53
2022-12-15T04:57:19.841Z,95524.59
2022-12-15T05:00:09.149Z,95484.97
2022-12-15T05:03:00.855Z,95471.72
2022-12-15T05:06:16.854Z,95465.16
2022-12-15T05:09:08.639Z,95483.09
2022-12-15T05:12:03.172Z,95510.28
2022-12-15T05:14:51.966Z,95428.69
2022-12-15T05:17:41.622Z,95442.63
2022-12-15T05:20:36.715Z,95506.66
2022-12-15T05:23:27.171Z,95471.94
2022-12-15T05:26:15.163Z,95521.56
2022-12-15T05:29:05.934Z,95517.59
2022-12-15T05:31:53.076Z,95491.53
2022-12-15T05:34:31.287Z,95541.97
2022-12-15T05:37:03.639Z,95544.19
2022-12-15T05:39:38.144Z,95471.50
2022-12-15T05:42:10.538Z,95539.28
2022-12-15T05:44:44.651Z,95519.47
2022-12-15T05:47:18.702Z,95511.47
2022-12-15T05:49:55.773Z,95585.84
2022-12-15T05:52:28.911Z,95524.97
2022-12-15T05:54:59.279Z,95533.06
2022-12-15T05:57:33.707Z,95556.66
2022-12-15T06:00:10.768Z,95534.22
2022-12-15T06:02:45.852Z,95538.94
2022-12-15T06:05:17.584Z,95494.34
2022-12-15T06:07:51.570Z,95524.25
2022-12-15T06:10:27.328Z,95555.34
2022-12-15T06:12:58.264Z,95537.28
2022-12-15T06:15:29.968Z,95532.13
2022-12-15T06:18:04.431Z,95493.41
2022-12-15T06:20:38.353Z,95512.19
2022-12-15T06:23:10.626Z,95576.56
2022-12-15T06:25:43.532Z,95536.59
2022-12-15T06:28:17.516Z,95518.72
2022-12-15T06:30:51.143Z,95558.06
2022-12-15T06:33:25.751Z,95543.50
2022-12-15T06:36:06.647Z,95585.50
2022-12-15T06:38:38.095Z,95570.50
2022-12-15T06:41:17.432Z,95541.84
2022-12-15T06:43:57.763Z,95567.19
2022-12-15T06:46:31.662Z,95571.19
2022-12-15T06:49:19.477Z,95483.78
2022-12-15T06:51:53.631Z,95569.66
2022-12-15T06:54:24.570Z,95575.75
2022-12-15T06:57:02.249Z,95569.91
2022-12-15T06:59:36.917Z,95557.94
2022-12-15T07:02:18.500Z,95570.03
2022-12-15T07:05:08.984Z,95564.25
2022-12-15T07:07:40.745Z,95592.19
2022-12-15T07:10:13.340Z,95601.56
2022-12-15T07:12:45.203Z,95544.09
2022-12-15T07:15:16.838Z,95616.69
2022-12-15T07:17:49.642Z,95579.06
2022-12-15T07:20:28.637Z,95608.59
2022-12-15T07:23:01.188Z,95615.75
2022-12-15T07:25:33.193Z,95598.06
2022-12-15T07:28:08.535Z,95578.94
2022-12-15T07:30:49.258Z,95576.94
2022-12-15T07:33:23.866Z,95590.19
2022-12-15T07:36:02.099Z,95577.19
2022-12-15T07:38:35.233Z,95574.56
2022-12-15T07:41:13.690Z,95589.38
2022-12-15T07:43:45.400Z,95551.13
2022-12-15T07:46:17.798Z,95634.19
2022-12-15T07:48:51.974Z,95599.94
2022-12-15T07:51:28.074Z,95583.03
2022-12-15T07:53:59.013Z,95556.75
2022-12-15T07:56:33.266Z,95558.75
2022-12-15T07:59:08.939Z,95579.41
2022-12-15T08:01:42.265Z,95592.28
2022-12-15T08:04:18.219Z,95613.56
2022-12-15T08:06:51.308Z,95617.53
2022-12-15T08:09:25.443Z,95607.47
2022-12-15T08:11:57.282Z,95632.09
2022-12-15T08:14:33.744Z,95633.75
2022-12-15T08:17:10.424Z,95649.59
2022-12-15T08:19:42.444Z,95617.66
2022-12-15T08:22:15.683Z,95603.91
2022-12-15T08:24:45.619Z,95620.25
2022-12-15T08:27:20.536Z,95639.25
2022-12-15T08:29:57.154Z,95456.00
2022-12-15T08:32:32.676Z,95601.56
2022-12-15T08:35:04.717Z,95585.81
2022-12-15T08:37:39.754Z,95603.91
2022-12-15T08:40:12.147Z,95747.91
2022-12-15T08:42:46.548Z,95650.38
2022-12-15T08:45:17.403Z,95668.00
2022-12-15T08:47:48.018Z,95624.53
2022-12-15T08:50:29.708Z,95624.41
2022-12-15T08:53:30.395Z,95702.09
2022-12-15T08:59:03.170Z,95668.00
2022-12-15T09:01:42.517Z,95693.13
2022-12-15T09:04:17.577Z,95655.06
2022-12-15T09:06:53.295Z,95644.97
2022-12-15T09:09:24.440Z,95575.31
2022-12-15T09:11:55.843Z,95659.16
2022-12-15T09:14:30.481Z,95621.06
2022-12-15T09:17:03.567Z,95645.03
2022-12-15T09:19:32.890Z,95660.34
2022-12-15T09:22:05.572Z,95673.59
2022-12-15T09:24:38.336Z,95647.84
2022-12-15T09:27:14.097Z,95665.25
2022-12-15T09:29:48.334Z,95621.22
2022-12-15T09:32:21.294Z,95706.81
2022-12-15T09:34:53.221Z,95699.88
2022-12-15T09:37:26.315Z,95655.66
2022-12-15T09:40:02.733Z,95637.50
2022-12-15T09:42:35.989Z,95674.06
2022-12-15T09:45:22.119Z,95633.03
2022-12-15T09:48:04.004Z,95674.38
2022-12-15T09:50:38.377Z,95622.88
2022-12-15T09:53:36.724Z,95668.88
2022-12-15T09:56:09.169Z,95653.25
2022-12-15T09:58:45.789Z,95685.88
2022-12-15T10:01:26.435Z,95602.03
2022-12-15T10:04:05.412Z,95570.88
2022-12-15T10:06:38.040Z,95574.31
2022-12-15T10:09:19.409Z,95628.00
2022-12-15T10:11:51.681Z,95633.34
2022-12-15T10:14:35.387Z,95566.19
2022-12-15T10:17:18.509Z,95619.22
2022-12-15T10:19:53.617Z,95612.34
2022-12-15T10:22:26.361Z,95575.91
2022-12-15T10:25:11.817Z,95548.41
2022-12-15T10:28:13.956Z,95625.78
2022-12-15T10:30:53.127Z,95574.91
2022-12-15T10:33:24.558Z,95620.69
2022-12-15T10:35:55.148Z,95609.22
2022-12-15T10:38:31.200Z,95623.22
2022-12-15T10:41:04.853Z,95632.72
2022-12-15T10:43:37.190Z,95588.78
2022-12-15T10:46:14.888Z,95525.31
2022-12-15T10:48:44.578Z,95623.06
2022-12-15T10:51:24.591Z,95562.38
2022-12-15T10:53:55.268Z,95590.53
2022-12-15T10:56:33.462Z,95552.88
2022-12-15T10:59:05.241Z,95622.97
2022-12-15T11:01:35.788Z,95600.63
2022-12-15T11:04:05.366Z,95595.41
2022-12-15T11:06:39.212Z,95627.88
2022-12-15T11:09:26.210Z,95612.81
2022-12-15T11:12:13.414Z,95604.97
2022-12-15T11:14:46.468Z,95578.25
2022-12-15T11:17:18.728Z,95627.47
2022-12-15T11:20:02.296Z,95579.44
2022-12-15T11:22:42.902Z,95562.13
2022-12-15T11:25:35.082Z,95638.19
2022-12-15T11:28:11.564Z,95533.75
2022-12-15T11:30:47.967Z,95577.19
2022-12-15T11:33:16.693Z,95536.09
2022-12-15T11:36:01.840Z,95532.03
2022-12-15T11:38:36.669Z,95542.97
2022-12-15T11:41:15.191Z,95552.22
2022-12-15T11:44:06.711Z,95554.16
2022-12-15T11:46:44.684Z,95527.13
2022-12-15T11:49:58.609Z,95523.75
2022-12-15T11:52:51.112Z,95594.44
2022-12-15T11:55:32.051Z,95535.84
2022-12-15T11:58:43.732Z,95568.34
2022-12-15T12:01:28.829Z,95585.56
2022-12-15T12:04:10.197Z,95580.63
2022-12-15T12:06:46.974Z,95577.19
2022-12-15T12:09:31.210Z,95524.50
2022-12-15T12:12:13.058Z,95568.84
2022-12-15T12:14:54.960Z,95539.50
2022-12-15T12:17:42.252Z,95551.28
2022-12-15T12:20:19.309Z,95538.16
2022-12-15T12:22:56.538Z,95564.25
2022-12-15T12:25:26.903Z,95533.97
2022-12-15T12:27:59.797Z,95537.16
2022-12-15T12:30:34.702Z,95510.75
2022-12-15T12:33:15.204Z,95520.56
2022-12-15T12:35:50.014Z,95540.38
2022-12-15T12:38:23.905Z,95501.63
2022-12-15T12:41:02.854Z,95502.28
2022-12-15T12:43:37.306Z,95513.34
2022-12-15T12:46:12.077Z,95432.47
2022-12-15T12:48:48.566Z,95456.19
2022-12-15T12:51:30.859Z,95496.72
2022-12-15T12:54:00.466Z,95441.97
2022-12-15T12:56:41.038Z,95460.56
2022-12-15T12:59:37.333Z,95469.81
2022-12-15T13:02:48.303Z,95476.25
2022-12-15T13:05:35.505Z,95443.34
2022-12-15T13:08:50.981Z,95442.94
2022-12-15T13:12:15.066Z,95483.72
2022-12-15T13:14:51.986Z,95458.34
2022-12-15T13:17:33.001Z,95473.09
2022-12-15T13:20:33.817Z,95511.88
2022-12-15T13:23:42.536Z,95426.94
2022-12-15T13:26:21.070Z,95423.72
2022-12-15T13:28:53.091Z,95466.31
2022-12-15T13:31:49.123Z,95438.16
2022-12-15T13:34:24.890Z,95433.53
2022-12-15T13:37:02.091Z,95437.25
2022-12-15T13:39:57.517Z,95449.53
2022-12-15T13:42:41.488Z,95479.66
2022-12-15T13:48:42.808Z,95448.00
2022-12-15T13:51:32.885Z,95461.09
2022-12-15T13:54:15.393Z,95451.56
2022-12-15T13:56:53.981Z,95417.88
2022-12-15T13:59:32.528Z,95476.53
2022-12-15T14:02:01.820Z,95431.50
2022-12-15T14:04:30.141Z,95398.34
2022-12-15T14:07:03.252Z,95427.00
2022-12-15T14:09:37.862Z,95569.78
2022-12-15T14:12:09.586Z,95308.34
2022-12-15T14:14:45.091Z,95454.00
2022-12-15T14:17:18.181Z,95404.63
2022-12-15T14:19:50.925Z,95434.22
2022-12-15T14:22:28.622Z,95418.25
2022-12-15T14:25:10.143Z,95428.75
2022-12-15T14:27:38.345Z,95445.94
2022-12-15T14:30:22.335Z,95440.91
2022-12-15T14:32:55.941Z,95420.19
2022-12-15T14:35:31.051Z,95553.28
2022-12-15T14:38:03.145Z,95432.56
2022-12-15T14:40:35.433Z,95421.78
2022-12-15T14:43:04.824Z,95421.22
2022-12-15T14:45:34.017Z,95417.69
2022-12-15T14:51:00.209Z,95386.19
2022-12-15T14:53:33.483Z,95405.41
2022-12-15T14:56:30.096Z,95382.75
2022-12-15T14:59:04.187Z,95432.63
2022-12-15T15:01:40.887Z,95421.72
2022-12-15T15:03:10.459Z,95449.25
2022-12-15T15:04:26.438Z,95391.47
2022-12-15T15:06:56.924Z,95431.69
2022-12-15T15:09:28.134Z,95403.47
2022-12-15T15:12:02.222Z,95413.66
2022-12-15T15:14:34.244Z,95413.97
2022-12-15T15:17:09.269Z,95462.50
2022-12-15T15:19:40.469Z,95447.91
2022-12-15T15:22:27.288Z,95486.25
2022-12-15T15:24:55.523Z,95401.56
2022-12-15T15:27:36.728Z,95427.16
2022-12-15T15:30:18.876Z,95426.22
2022-12-15T15:32:56.748Z,95339.91
2022-12-15T15:35:30.644Z,95461.34
2022-12-15T15:38:06.032Z,95445.03
2022-12-15T15:40:34.298Z,95462.16
2022-12-15T15:43:10.604Z,95325.69
2022-12-15T15:45:39.222Z,95442.69
2022-12-15T15:48:08.339Z,95436.81
2022-12-15T15:50:37.839Z,95477.59
2022-12-15T15:53:06.090Z,95449.69
2022-12-15T15:55:39.672Z,95440.25
2022-12-15T15:58:13.684Z,95370.03
2022-12-15T16:00:42.052Z,95457.94
2022-12-15T16:03:11.298Z,95445.78
2022-12-15T16:05:40.561Z,95414.72
2022-12-15T16:08:14.906Z,95423.25
2022-12-15T16:10:48.147Z,95421.69
2022-12-15T16:13:25.986Z,95463.03
2022-12-15T16:15:55.144Z,95443.72
2022-12-15T16:18:23.380Z,95406.75
2022-12-15T16:20:53.202Z,95429.16
2022-12-15T16:23:25.035Z,95436.81
2022-12-15T16:25:55.887Z,95440.25
2022-12-15T16:28:28.053Z,95421.44
2022-12-15T16:30:58.369Z,95434.41
2022-12-15T16:33:27.305Z,95427.50
2022-12-15T16:35:55.662Z,95418.66
2022-12-15T16:38:27.993Z,95439.06
2022-12-15T16:40:58.017Z,95367.84
2022-12-15T16:43:34.503Z,95392.41
2022-12-15T16:46:05.777Z,95406.13
2022-12-15T16:48:34.563Z,95355.69
2022-12-15T16:51:03.182Z,95400.44
2022-12-15T16:53:36.984Z,95454.56
2022-12-15T16:56:08.097Z,95406.41
2022-12-15T16:58:37.779Z,95409.06
2022-12-15T17:01:06.492Z,95369.91
2022-12-15T17:03:34.906Z,95419.97
2022-12-15T17:06:07.935Z,95382.13
2022-12-15T17:08:43.747Z,95316.50
2022-12-15T17:11:18.572Z,95412.34
2022-12-15T17:13:51.340Z,95436.00
2022-12-15T17:16:20.485Z,95429.09
2022-12-15T17:18:49.801Z,95393.69
2022-12-15T17:21:20.877Z,95399.94
2022-12-15T17:23:53.007Z,95440.41
2022-12-15T17:26:29.232Z,95426.72
2022-12-15T17:29:03.999Z,95399.41
2022-12-15T17:31:35.533Z,95373.44
2022-12-15T17:34:24.929Z,95397.91
2022-12-15T17:36:53.579Z,95395.56
2022-12-15T17:39:23.711Z,95418.63
2022-12-15T17:42:07.392Z,95386.56
2022-12-15T17:44:39.898Z,95375.84
2022-12-15T17:47:09.525Z,95354.28
2022-12-15T17:49:39.141Z,95365.78
2022-12-15T17:52:21.041Z,95367.47
2022-12-15T17:54:50.179Z,95361.81
2022-12-15T17:57:18.801Z,95336.84
2022-12-15T17:59:48.519Z,95343.22
2022-12-15T18:02:17.082Z,95384.78
2022-12-15T18:04:45.898Z,95382.53
2022-12-15T18:07:20.869Z,95357.44
2022-12-15T18:09:50.146Z,95362.53
2022-12-15T18:12:20.897Z,95411.03
2022-12-15T18:14:50.890Z,95242.00
2022-12-15T18:17:19.150Z,95308.91
2022-12-15T18:19:47.408Z,95345.34
2022-12-15T18:22:21.033Z,95306.44
2022-12-15T18:24:49.832Z,95352.75
2022-12-15T18:27:23.572Z,95383.28
2022-12-15T18:29:53.496Z,95304.28
2022-12-15T18:32:25.391Z,95339.53
2022-12-15T18:34:54.086Z,95353.72
2022-12-15T18:37:24.871Z,95357.94
2022-12-15T18:39:53.682Z,95353.91
2022-12-15T18:42:23.205Z,95328.59
2022-12-15T18:44:53.977Z,95299.47
2022-12-15T18:47:24.998Z,95366.41
2022-12-15T18:49:53.359Z,95314.09
2022-12-15T18:52:24.999Z,95290.16
2022-12-15T18:54:54.844Z,95354.09
2022-12-15T18:57:29.976Z,95322.44
2022-12-15T19:00:00.900Z,95350.78
2022-12-15T19:02:33.721Z,95317.25
2022-12-15T19:05:02.092Z,95335.09
2022-12-15T19:07:34.337Z,95335.41
2022-12-15T19:10:02.614Z,95359.34
2022-12-15T19:12:30.878Z,95329.34
2022-12-15T19:15:01.780Z,95306.53
2022-12-15T19:17:47.831Z,95322.91
2022-12-15T19:20:36.843Z,95243.19
2022-12-15T19:23:05.693Z,95308.63
2022-12-15T19:25:34.711Z,95323.91
2022-12-15T19:28:03.401Z,95321.53
2022-12-15T19:30:40.132Z,95291.91
2022-12-15T19:33:10.925Z,95310.19
2022-12-15T19:35:40.715Z,95262.53
2022-12-15T19:38:10.166Z,95305.75
2022-12-15T19:40:38.647Z,95288.38
2022-12-15T19:43:07.296Z,95330.66
2022-12-15T19:45:42.048Z,95290.78
2022-12-15T19:48:12.329Z,95393.09
2022-12-15T19:50:42.904Z,95220.91
2022-12-15T19:53:18.625Z,95306.13
2022-12-15T19:55:46.880Z,95279.94
2022-12-15T19:58:29.282Z,95205.91
2022-12-15T20:01:04.198Z,95236.53
2022-12-15T20:03:33.155Z,95244.03
2022-12-15T20:06:04.341Z,95242.38
2022-12-15T20:08:37.148Z,95295.28
2022-12-15T20:11:06.336Z,95291.81
2022-12-15T20:13:35.039Z,95209.50
2022-12-15T20:16:05.925Z,95308.03
2022-12-15T20:18:34.603Z,95274.44
2022-12-15T20:21:03.175Z,95280.94
2022-12-15T20:23:31.818Z,95247.19
2022-12-15T20:26:01.099Z,95268.34
2022-12-15T20:28:31.278Z,95265.44
2022-12-15T20:30:59.695Z,95166.16
2022-12-15T20:33:29.688Z,95277.66
2022-12-15T20:35:58.299Z,95317.22
2022-12-15T20:38:31.500Z,95270.44
2022-12-15T20:41:01.294Z,95282.34
2022-12-15T20:43:32.541Z,95310.06
2022-12-15T20:46:06.454Z,95237.47
2022-12-15T20:48:37.584Z,95170.53
2022-12-15T20:51:09.770Z,95297.84
2022-12-15T20:53:39.125Z,95267.59
2022-12-15T20:56:11.538Z,95385.06
2022-12-15T20:58:39.950Z,95298.03
2022-12-15T21:01:18.857Z,95296.88
2022-12-15T21:03:50.422Z,95213.03
2022-12-15T21:06:31.516Z,95320.75
2022-12-15T21:08:59.946Z,95262.53
2022-12-15T21:11:32.991Z,95259.84
2022-12-15T21:14:04.274Z,95258.19
2022-12-15T21:16:34.072Z,95206.44
2022-12-15T21:19:20.190Z,95322.00
2022-12-15T21:21:52.262Z,95263.84
2022-12-15T21:24:26.662Z,95294.38
2022-12-15T21:26:55.516Z,95317.66
2022-12-15T21:29:26.792Z,95256.31
2022-12-15T21:31:55.106Z,95268.84
2022-12-15T21:34:24.710Z,95266.44
2022-12-15T21:36:54.715Z,95280.59
2022-12-15T21:39:29.553Z,95269.38
2022-12-15T21:42:00.608Z,95238.94
2022-12-15T21:44:29.055Z,95230.75
2022-12-15T21:46:57.266Z,95249.53
2022-12-15T21:49:26.373Z,95231.66
2022-12-15T21:51:58.131Z,95269.38
2022-12-15T21:54:31.353Z,95257.50
2022-12-15T21:57:00.596Z,95245.50
2022-12-15T21:59:31.153Z,95240.44
2022-12-15T22:02:01.669Z,95197.88
2022-12-15T22:04:33.665Z,95293.88
2022-12-15T22:07:02.407Z,95236.19
2022-12-15T22:09:30.632Z,95297.41
2022-12-15T22:11:59.396Z,95308.97
2022-12-15T22:14:30.551Z,95235.53
2022-12-15T22:17:00.551Z,95236.34
2022-12-15T22:19:30.386Z,95277.84
2022-12-15T22:21:58.550Z,95235.03
2022-12-15T22:24:27.167Z,95274.16
2022-12-15T22:26:55.402Z,95244.78
2022-12-15T22:29:25.008Z,95272.59
2022-12-15T22:31:54.942Z,95282.84
2022-12-15T22:34:27.502Z,95296.66
2022-12-15T22:36:57.060Z,95288.81
2022-12-15T22:39:25.238Z,95277.63
2022-12-15T22:41:53.679Z,95245.06
2022-12-15T22:44:25.079Z,95252.03
2022-12-15T22:46:55.706Z,95293.38
2022-12-15T22:49:28.192Z,95326.81
2022-12-15T22:51:58.252Z,95109.06
2022-12-15T22:54:28.828Z,95265.44
2022-12-15T22:57:01.226Z,95295.38
2022-12-15T22:59:34.766Z,95325.38
2022-12-15T23:02:04.221Z,95176.84
2022-12-15T23:04:33.828Z,95292.63
2022-12-15T23:07:05.290Z,95300.31
2022-12-15T23:09:33.648Z,95276.38
2022-12-15T23:12:00.868Z,95252.38
2022-12-15T23:14:43.443Z,95284.41
2022-12-15T23:17:12.060Z,95283.72
2022-12-15T23:19:44.812Z,95238.25
2022-12-15T23:22:14.983Z,95310.88
2022-12-15T23:24:43.303Z,95313.06
2022-12-15T23:27:12.576Z,95298.78
2022-12-15T23:29:40.880Z,95234.00
2022-12-15T23:32:09.111Z,95245.94
2022-12-15T23:34:37.291Z,95289.16
2022-12-15T23:37:05.617Z,95285.88
2022-12-15T23:39:35.165Z,95259.63
2022-12-15T23:42:03.409Z,95283.03
2022-12-15T23:44:31.642Z,95302.75
2022-12-15T23:46:59.921Z,95263.16
2022-12-15T23:49:28.133Z,95237.53
2022-12-15T23:51:56.373Z,95305.59
2022-12-15T23:54:24.563Z,95284.88
2022-12-15T23:56:54.120Z,95258.00
2022-12-15T23:59:23.000Z,95100.19
